Sid Moller — WDF9421 — position and weather

sailwx.info

Track history (hours):
 
Tides and Currents Weather Stations Pressure Air Temp Water Temp Dewpoint Dewpoint Depression Visibility Wind Speed Wind Dir Waves Ship Positions

Sid Moller

Owner: Genesis Marine, LLC, Houston, TX. More information available from US FCC via Universal Licensing System and Coast Guard Vessel Documentation Center.

Last reported at 2018-Apr-18 04:52 UTC. Time now 2018-Apr-22 20:23 UTC.
Position N 27°53' W 097°03'.

Length 28 m; draft 3 m.

Type: Towing. MMSI: 367504980.

Date/timePositionNaut miles runAvg speedWind from/ knotsBaromVisibWave heightAir tempDewpointWater temp
2018-Apr-18 04:52N 27°53' W 097°03'0 0.0
2018-Apr-18 04:30N 27°53' W 097°03'  
2018-Apr-13 07:09N 28°36' W 096°11'0 0.0
2018-Apr-13 06:40N 28°36' W 096°11'0 0.0
2018-Apr-13 06:28N 28°36' W 096°11'0 0.1
2018-Apr-13 03:25N 28°36' W 096°10'2 3.5
2018-Apr-13 02:46N 28°37' W 096°08'1 4.4
2018-Apr-13 02:27N 28°38' W 096°07'26 2.0
2018-Apr-12 13:50N 28°46' W 095°39'6 4.2
2018-Apr-12 12:21N 28°49' W 095°33'2 0.9
2018-Apr-12 10:39N 28°50' W 095°32'8 3.1
2018-Apr-12 08:14N 28°54' W 095°24'0 0.0
2018-Apr-12 07:57N 28°54' W 095°24'1 2.1
2018-Apr-12 07:30N 28°54' W 095°23'1 2.0
2018-Apr-12 07:00N 28°54' W 095°22'1 0.7
2018-Apr-12 05:10N 28°54' W 095°24'33 2.3
2018-Apr-11 14:34N 29°17' W 094°57'0 4.5
2018-Apr-11 14:28N 29°17' W 094°56'2 4.4
2018-Apr-11 14:00N 29°17' W 094°54'2 4.0
2018-Apr-11 13:30N 29°19' W 094°52'1 2.5
2018-Apr-11 13:00N 29°19' W 094°51'2 4.8
2018-Apr-11 12:30N 29°21' W 094°49'2 4.4
2018-Apr-11 12:00N 29°22' W 094°47'2 4.8
2018-Apr-11 11:30N 29°24' W 094°45'1 2.3
2018-Apr-11 10:56N 29°25' W 094°44'2 4.4
2018-Apr-11 10:30N 29°26' W 094°42'1 1.5
2018-Apr-11 09:58N 29°27' W 094°42'2 3.0
2018-Apr-11 09:27N 29°27' W 094°40'2 4.3
2018-Apr-11 09:00N 29°28' W 094°38'2 4.3
2018-Apr-11 08:28N 29°29' W 094°36'2 4.2
2018-Apr-11 08:00N 29°30' W 094°34'2 4.0
2018-Apr-11 07:30N 29°31' W 094°32'2 4.3
2018-Apr-11 07:00N 29°31' W 094°29'1 2.1
2018-Apr-11 06:30N 29°32' W 094°29'2 3.5
2018-Apr-11 06:00N 29°34' W 094°27'2 4.4
2018-Apr-11 05:30N 29°34' W 094°25'2 3.6
2018-Apr-11 05:00N 29°36' W 094°24'1 2.3
2018-Apr-11 04:30N 29°36' W 094°22'1 2.7
2018-Apr-11 04:00N 29°37' W 094°21'2 4.9
2018-Apr-11 03:30N 29°38' W 094°19'2 4.8
2018-Apr-11 03:00N 29°39' W 094°16'2 4.8
2018-Apr-11 02:30N 29°40' W 094°14'2 4.8
2018-Apr-11 02:00N 29°41' W 094°11'2 3.4
2018-Apr-11 01:30N 29°41' W 094°09'3 4.9
2018-Apr-11 01:00N 29°43' W 094°07'2 5.1
2018-Apr-11 00:30N 29°45' W 094°05'3 5.1
2018-Apr-11 00:00N 29°46' W 094°03'3 5.1
2018-Apr-10 23:30N 29°48' W 094°00'2 4.5
2018-Apr-10 23:00N 29°49' W 093°58'2 4.3
2018-Apr-10 22:30N 29°51' W 093°57'3 5.4
2018-Apr-10 22:00N 29°53' W 093°55'3 5.4
2018-Apr-10 21:30N 29°55' W 093°53'2 4.9
2018-Apr-10 21:00N 29°57' W 093°52'2 3.4
2018-Apr-10 20:30N 29°59' W 093°50'3 5.1
2018-Apr-10 20:00N 29°59' W 093°47'3 5.3
2018-Apr-10 19:30N 30°01' W 093°45'3 5.1
2018-Apr-10 19:00N 30°03' W 093°43'2 4.9
2018-Apr-10 18:29N 30°04' W 093°40'3 5.0
2018-Apr-10 17:58N 30°04' W 093°37'2 4.3
2018-Apr-10 17:28N 30°04' W 093°35'2 4.0
2018-Apr-10 17:00N 30°04' W 093°33'2 3.9
2018-Apr-10 16:29N 30°04' W 093°30'2 4.0
2018-Apr-10 15:59N 30°04' W 093°28'2 3.9
2018-Apr-10 15:30N 30°04' W 093°26'1 2.9
2018-Apr-10 15:00N 30°04' W 093°24'2 3.7
2018-Apr-10 14:30N 30°04' W 093°22'1 3.0
2018-Apr-10 14:00N 30°04' W 093°21'1 1.5
2018-Apr-10 13:30N 30°05' W 093°20'1 2.7
2018-Apr-10 13:00N 30°06' W 093°20'3 5.1
2018-Apr-10 12:30N 30°09' W 093°20'2 4.3
2018-Apr-10 12:00N 30°11' W 093°19'1 1.5
2018-Apr-10 11:30N 30°11' W 093°18'0 0.5
2018-Apr-10 11:00N 30°11' W 093°19'0 0.0
2018-Apr-10 10:29N 30°11' W 093°19'0 0.0
2018-Apr-10 09:58N 30°11' W 093°19'0 0.0
2018-Apr-10 09:29N 30°11' W 093°19'0 0.0
2018-Apr-10 09:00N 30°11' W 093°19'0 0.0
2018-Apr-10 08:30N 30°11' W 093°19'0 0.0
2018-Apr-10 08:00N 30°11' W 093°19'0 0.0
2018-Apr-10 07:30N 30°11' W 093°19'0 0.0
2018-Apr-10 06:59N 30°11' W 093°19'0 0.0
2018-Apr-10 06:30N 30°11' W 093°19'0 0.0
2018-Apr-10 05:50N 30°11' W 093°19'0 0.0
2018-Apr-10 05:30N 30°11' W 093°19'0 0.0
2018-Apr-10 04:59N 30°11' W 093°19'0 0.0
2018-Apr-10 04:30N 30°11' W 093°19'0 0.0
2018-Apr-10 04:00N 30°11' W 093°19'0 0.0
2018-Apr-10 03:30N 30°11' W 093°19'0 0.0
2018-Apr-10 02:59N 30°11' W 093°19'0 0.0
2018-Apr-10 02:30N 30°11' W 093°19'0 0.0
2018-Apr-10 02:00N 30°11' W 093°19'0 0.0
2018-Apr-10 01:30N 30°11' W 093°19'0 0.0
2018-Apr-10 00:59N 30°11' W 093°19'0 0.0
2018-Apr-10 00:30N 30°11' W 093°19'0 0.0
2018-Apr-10 00:00N 30°11' W 093°19'0 0.1
2018-Apr-09 23:30N 30°11' W 093°19'0 0.0
2018-Apr-09 23:00N 30°11' W 093°19'0 0.1
2018-Apr-09 22:30N 30°11' W 093°19'0 0.0
2018-Apr-09 21:59N 30°11' W 093°19'0 0.0
2018-Apr-09 21:30N 30°11' W 093°19'0 0.0
2018-Apr-09 21:00N 30°11' W 093°19'0 0.0
2018-Apr-09 20:22N 30°11' W 093°19'0 0.0
2018-Apr-09 19:59N 30°11' W 093°19'0 0.0
2018-Apr-09 19:29N 30°11' W 093°19'0 0.0
2018-Apr-09 19:00N 30°11' W 093°19'0 0.0
2018-Apr-09 18:15N 30°11' W 093°19'0 0.0
2018-Apr-09 18:00N 30°11' W 093°19'0 0.0
2018-Apr-09 17:29N 30°11' W 093°19'0 0.0
2018-Apr-09 17:00N 30°11' W 093°19'0 0.0
2018-Apr-09 16:30N 30°11' W 093°19'0 0.0
2018-Apr-09 16:00N 30°11' W 093°19'0 0.0
2018-Apr-09 15:29N 30°11' W 093°19'0 0.1
2018-Apr-09 15:00N 30°11' W 093°19'0 0.7
2018-Apr-09 14:30N 30°11' W 093°19'2 4.9
2018-Apr-09 14:00N 30°08' W 093°20'2 4.8
2018-Apr-09 13:30N 30°06' W 093°20'2 3.2
2018-Apr-09 12:55N 30°04' W 093°20'0 0.0
2018-Apr-09 12:30N 30°04' W 093°20'0 0.1
2018-Apr-09 12:00N 30°04' W 093°20'0 0.0
2018-Apr-09 11:30N 30°04' W 093°20'0 0.0
2018-Apr-09 11:00N 30°04' W 093°20'0 0.0
2018-Apr-09 10:30N 30°04' W 093°20'0 0.0
2018-Apr-09 10:00N 30°04' W 093°20'0 0.0
2018-Apr-09 09:30N 30°04' W 093°20'0 0.0
2018-Apr-09 09:00N 30°04' W 093°20'0 0.0
2018-Apr-09 08:30N 30°04' W 093°20'0 0.0
2018-Apr-09 08:00N 30°04' W 093°20'0 0.0
2018-Apr-09 07:30N 30°04' W 093°20'0 0.0
2018-Apr-09 07:00N 30°04' W 093°20'0 0.0
2018-Apr-09 06:30N 30°04' W 093°20'0 0.0
2018-Apr-09 06:00N 30°04' W 093°20'0 0.0
2018-Apr-09 05:30N 30°04' W 093°20'0 0.0
2018-Apr-09 05:00N 30°04' W 093°20'0 0.0
2018-Apr-09 04:30N 30°04' W 093°20'0 0.0
2018-Apr-09 04:00N 30°04' W 093°20'0 0.0
2018-Apr-09 03:30N 30°04' W 093°20'0 0.0
2018-Apr-09 03:00N 30°04' W 093°20'0 0.0
2018-Apr-09 02:30N 30°04' W 093°20'0 0.0
2018-Apr-09 02:00N 30°04' W 093°20'0 0.0
2018-Apr-09 01:30N 30°04' W 093°20'0 0.0
2018-Apr-09 01:00N 30°04' W 093°20'0 0.0
2018-Apr-09 00:29N 30°04' W 093°20'0 0.0
2018-Apr-09 00:00N 30°04' W 093°20'0 0.0
2018-Apr-08 23:30N 30°04' W 093°20'0 0.0
2018-Apr-08 23:00N 30°04' W 093°20'0 0.0
2018-Apr-08 22:30N 30°04' W 093°20'0 0.1
2018-Apr-08 22:01N 30°04' W 093°20'2 4.8
2018-Apr-08 21:30N 30°06' W 093°18'0 0.1
2018-Apr-08 21:00N 30°06' W 093°18'0 0.1
2018-Apr-08 20:30N 30°06' W 093°18'0 0.0
2018-Apr-08 20:00N 30°06' W 093°18'0 0.0
2018-Apr-08 19:31N 30°06' W 093°18'0 0.0
2018-Apr-08 19:00N 30°06' W 093°18'1 2.6
2018-Apr-08 18:30N 30°05' W 093°20'1 2.5
2018-Apr-08 18:00N 30°04' W 093°20'0 0.0
2018-Apr-08 17:30N 30°04' W 093°20'0 0.0
2018-Apr-08 17:00N 30°04' W 093°20'0 0.0
2018-Apr-08 16:30N 30°04' W 093°20'0 0.0
2018-Apr-08 16:00N 30°04' W 093°20'0 0.0
2018-Apr-08 15:30N 30°04' W 093°20'0 0.0
2018-Apr-08 15:00N 30°04' W 093°20'0 0.0
2018-Apr-08 14:30N 30°04' W 093°20'0 0.0
2018-Apr-08 14:00N 30°04' W 093°20'0 0.0
2018-Apr-08 13:30N 30°04' W 093°20'0 0.0
2018-Apr-08 13:00N 30°04' W 093°20'0 0.0
2018-Apr-08 12:30N 30°04' W 093°20'0 0.0
2018-Apr-08 12:00N 30°04' W 093°20'0 0.0
2018-Apr-08 11:30N 30°04' W 093°20'0 0.0
2018-Apr-08 11:00N 30°04' W 093°20'1 1.1
2018-Apr-08 10:30N 30°05' W 093°20'2 4.5
2018-Apr-08 10:00N 30°06' W 093°18'0 0.0
2018-Apr-08 09:30N 30°06' W 093°18'0 0.0
2018-Apr-08 09:00N 30°06' W 093°18'0 0.0
2018-Apr-08 08:30N 30°06' W 093°18'0 0.0
2018-Apr-08 08:00N 30°06' W 093°18'0 0.0
2018-Apr-08 07:30N 30°06' W 093°18'0 0.0
2018-Apr-08 07:00N 30°06' W 093°18'0 0.0
2018-Apr-08 06:30N 30°06' W 093°18'0 0.0
2018-Apr-08 06:00N 30°06' W 093°18'0 0.0
2018-Apr-08 05:30N 30°06' W 093°18'0 0.1
2018-Apr-08 05:01N 30°06' W 093°18'  
Track history (hours):
 
Tides and Currents Weather Stations Pressure Air Temp Water Temp Dewpoint Dewpoint Depression Visibility Wind Speed Wind Dir Waves Ship Positions

Sid Moller

Owner: Genesis Marine, LLC, Houston, TX. More information available from US FCC via Universal Licensing System and Coast Guard Vessel Documentation Center.

Last reported at 2018-Apr-18 04:52 UTC. Time now 2018-Apr-22 20:23 UTC.
Position N 27°53' W 097°03'.

Length 28 m; draft 3 m.

Type: Towing. MMSI: 367504980.

Date/timePositionNaut miles runAvg speedWind from/ knotsBaromVisibWave heightAir tempDewpointWater temp
2018-Apr-18 04:52N 27°53' W 097°03'0 0.0
2018-Apr-18 04:30N 27°53' W 097°03'  
2018-Apr-13 07:09N 28°36' W 096°11'0 0.0
2018-Apr-13 06:40N 28°36' W 096°11'0 0.0
2018-Apr-13 06:28N 28°36' W 096°11'0 0.1
2018-Apr-13 03:25N 28°36' W 096°10'2 3.5
2018-Apr-13 02:46N 28°37' W 096°08'1 4.4
2018-Apr-13 02:27N 28°38' W 096°07'26 2.0
2018-Apr-12 13:50N 28°46' W 095°39'6 4.2
2018-Apr-12 12:21N 28°49' W 095°33'2 0.9
2018-Apr-12 10:39N 28°50' W 095°32'8 3.1
2018-Apr-12 08:14N 28°54' W 095°24'0 0.0
2018-Apr-12 07:57N 28°54' W 095°24'1 2.1
2018-Apr-12 07:30N 28°54' W 095°23'1 2.0
2018-Apr-12 07:00N 28°54' W 095°22'1 0.7
2018-Apr-12 05:10N 28°54' W 095°24'33 2.3
2018-Apr-11 14:34N 29°17' W 094°57'0 4.5
2018-Apr-11 14:28N 29°17' W 094°56'2 4.4
2018-Apr-11 14:00N 29°17' W 094°54'2 4.0
2018-Apr-11 13:30N 29°19' W 094°52'1 2.5
2018-Apr-11 13:00N 29°19' W 094°51'2 4.8
2018-Apr-11 12:30N 29°21' W 094°49'2 4.4
2018-Apr-11 12:00N 29°22' W 094°47'2 4.8
2018-Apr-11 11:30N 29°24' W 094°45'1 2.3
2018-Apr-11 10:56N 29°25' W 094°44'2 4.4
2018-Apr-11 10:30N 29°26' W 094°42'1 1.5
2018-Apr-11 09:58N 29°27' W 094°42'2 3.0
2018-Apr-11 09:27N 29°27' W 094°40'2 4.3
2018-Apr-11 09:00N 29°28' W 094°38'2 4.3
2018-Apr-11 08:28N 29°29' W 094°36'2 4.2
2018-Apr-11 08:00N 29°30' W 094°34'2 4.0
2018-Apr-11 07:30N 29°31' W 094°32'2 4.3
2018-Apr-11 07:00N 29°31' W 094°29'1 2.1
2018-Apr-11 06:30N 29°32' W 094°29'2 3.5
2018-Apr-11 06:00N 29°34' W 094°27'2 4.4
2018-Apr-11 05:30N 29°34' W 094°25'2 3.6
2018-Apr-11 05:00N 29°36' W 094°24'1 2.3
2018-Apr-11 04:30N 29°36' W 094°22'1 2.7
2018-Apr-11 04:00N 29°37' W 094°21'2 4.9
2018-Apr-11 03:30N 29°38' W 094°19'2 4.8
2018-Apr-11 03:00N 29°39' W 094°16'2 4.8
2018-Apr-11 02:30N 29°40' W 094°14'2 4.8
2018-Apr-11 02:00N 29°41' W 094°11'2 3.4
2018-Apr-11 01:30N 29°41' W 094°09'3 4.9
2018-Apr-11 01:00N 29°43' W 094°07'2 5.1
2018-Apr-11 00:30N 29°45' W 094°05'3 5.1
2018-Apr-11 00:00N 29°46' W 094°03'3 5.1
2018-Apr-10 23:30N 29°48' W 094°00'2 4.5
2018-Apr-10 23:00N 29°49' W 093°58'2 4.3
2018-Apr-10 22:30N 29°51' W 093°57'3 5.4
2018-Apr-10 22:00N 29°53' W 093°55'3 5.4
2018-Apr-10 21:30N 29°55' W 093°53'2 4.9
2018-Apr-10 21:00N 29°57' W 093°52'2 3.4
2018-Apr-10 20:30N 29°59' W 093°50'3 5.1
2018-Apr-10 20:00N 29°59' W 093°47'3 5.3
2018-Apr-10 19:30N 30°01' W 093°45'3 5.1
2018-Apr-10 19:00N 30°03' W 093°43'2 4.9
2018-Apr-10 18:29N 30°04' W 093°40'3 5.0
2018-Apr-10 17:58N 30°04' W 093°37'2 4.3
2018-Apr-10 17:28N 30°04' W 093°35'2 4.0
2018-Apr-10 17:00N 30°04' W 093°33'2 3.9
2018-Apr-10 16:29N 30°04' W 093°30'2 4.0
2018-Apr-10 15:59N 30°04' W 093°28'2 3.9
2018-Apr-10 15:30N 30°04' W 093°26'1 2.9
2018-Apr-10 15:00N 30°04' W 093°24'2 3.7
2018-Apr-10 14:30N 30°04' W 093°22'1 3.0
2018-Apr-10 14:00N 30°04' W 093°21'1 1.5
2018-Apr-10 13:30N 30°05' W 093°20'1 2.7
2018-Apr-10 13:00N 30°06' W 093°20'3 5.1
2018-Apr-10 12:30N 30°09' W 093°20'2 4.3
2018-Apr-10 12:00N 30°11' W 093°19'1 1.5
2018-Apr-10 11:30N 30°11' W 093°18'0 0.5
2018-Apr-10 11:00N 30°11' W 093°19'0 0.0
2018-Apr-10 10:29N 30°11' W 093°19'0 0.0
2018-Apr-10 09:58N 30°11' W 093°19'0 0.0
2018-Apr-10 09:29N 30°11' W 093°19'0 0.0
2018-Apr-10 09:00N 30°11' W 093°19'0 0.0
2018-Apr-10 08:30N 30°11' W 093°19'0 0.0
2018-Apr-10 08:00N 30°11' W 093°19'0 0.0
2018-Apr-10 07:30N 30°11' W 093°19'0 0.0
2018-Apr-10 06:59N 30°11' W 093°19'0 0.0
2018-Apr-10 06:30N 30°11' W 093°19'0 0.0
2018-Apr-10 05:50N 30°11' W 093°19'0 0.0
2018-Apr-10 05:30N 30°11' W 093°19'0 0.0
2018-Apr-10 04:59N 30°11' W 093°19'0 0.0
2018-Apr-10 04:30N 30°11' W 093°19'0 0.0
2018-Apr-10 04:00N 30°11' W 093°19'0 0.0
2018-Apr-10 03:30N 30°11' W 093°19'0 0.0
2018-Apr-10 02:59N 30°11' W 093°19'0 0.0
2018-Apr-10 02:30N 30°11' W 093°19'0 0.0
2018-Apr-10 02:00N 30°11' W 093°19'0 0.0
2018-Apr-10 01:30N 30°11' W 093°19'0 0.0
2018-Apr-10 00:59N 30°11' W 093°19'0 0.0
2018-Apr-10 00:30N 30°11' W 093°19'0 0.0
2018-Apr-10 00:00N 30°11' W 093°19'0 0.1
2018-Apr-09 23:30N 30°11' W 093°19'0 0.0
2018-Apr-09 23:00N 30°11' W 093°19'0 0.1
2018-Apr-09 22:30N 30°11' W 093°19'0 0.0
2018-Apr-09 21:59N 30°11' W 093°19'0 0.0
2018-Apr-09 21:30N 30°11' W 093°19'0 0.0
2018-Apr-09 21:00N 30°11' W 093°19'0 0.0
2018-Apr-09 20:22N 30°11' W 093°19'0 0.0
2018-Apr-09 19:59N 30°11' W 093°19'0 0.0
2018-Apr-09 19:29N 30°11' W 093°19'0 0.0
2018-Apr-09 19:00N 30°11' W 093°19'0 0.0
2018-Apr-09 18:15N 30°11' W 093°19'0 0.0
2018-Apr-09 18:00N 30°11' W 093°19'0 0.0
2018-Apr-09 17:29N 30°11' W 093°19'0 0.0
2018-Apr-09 17:00N 30°11' W 093°19'0 0.0
2018-Apr-09 16:30N 30°11' W 093°19'0 0.0
2018-Apr-09 16:00N 30°11' W 093°19'0 0.0
2018-Apr-09 15:29N 30°11' W 093°19'0 0.1
2018-Apr-09 15:00N 30°11' W 093°19'0 0.7
2018-Apr-09 14:30N 30°11' W 093°19'2 4.9
2018-Apr-09 14:00N 30°08' W 093°20'2 4.8
2018-Apr-09 13:30N 30°06' W 093°20'2 3.2
2018-Apr-09 12:55N 30°04' W 093°20'0 0.0
2018-Apr-09 12:30N 30°04' W 093°20'0 0.1
2018-Apr-09 12:00N 30°04' W 093°20'0 0.0
2018-Apr-09 11:30N 30°04' W 093°20'0 0.0
2018-Apr-09 11:00N 30°04' W 093°20'0 0.0
2018-Apr-09 10:30N 30°04' W 093°20'0 0.0
2018-Apr-09 10:00N 30°04' W 093°20'0 0.0
2018-Apr-09 09:30N 30°04' W 093°20'0 0.0
2018-Apr-09 09:00N 30°04' W 093°20'0 0.0
2018-Apr-09 08:30N 30°04' W 093°20'0 0.0
2018-Apr-09 08:00N 30°04' W 093°20'0 0.0
2018-Apr-09 07:30N 30°04' W 093°20'0 0.0
2018-Apr-09 07:00N 30°04' W 093°20'0 0.0
2018-Apr-09 06:30N 30°04' W 093°20'0 0.0
2018-Apr-09 06:00N 30°04' W 093°20'0 0.0
2018-Apr-09 05:30N 30°04' W 093°20'0 0.0
2018-Apr-09 05:00N 30°04' W 093°20'0 0.0
2018-Apr-09 04:30N 30°04' W 093°20'0 0.0
2018-Apr-09 04:00N 30°04' W 093°20'0 0.0
2018-Apr-09 03:30N 30°04' W 093°20'0 0.0
2018-Apr-09 03:00N 30°04' W 093°20'0 0.0
2018-Apr-09 02:30N 30°04' W 093°20'0 0.0
2018-Apr-09 02:00N 30°04' W 093°20'0 0.0
2018-Apr-09 01:30N 30°04' W 093°20'0 0.0
2018-Apr-09 01:00N 30°04' W 093°20'0 0.0
2018-Apr-09 00:29N 30°04' W 093°20'0 0.0
2018-Apr-09 00:00N 30°04' W 093°20'0 0.0
2018-Apr-08 23:30N 30°04' W 093°20'0 0.0
2018-Apr-08 23:00N 30°04' W 093°20'0 0.0
2018-Apr-08 22:30N 30°04' W 093°20'0 0.1
2018-Apr-08 22:01N 30°04' W 093°20'2 4.8
2018-Apr-08 21:30N 30°06' W 093°18'0 0.1
2018-Apr-08 21:00N 30°06' W 093°18'0 0.1
2018-Apr-08 20:30N 30°06' W 093°18'0 0.0
2018-Apr-08 20:00N 30°06' W 093°18'0 0.0
2018-Apr-08 19:31N 30°06' W 093°18'0 0.0
2018-Apr-08 19:00N 30°06' W 093°18'1 2.6
2018-Apr-08 18:30N 30°05' W 093°20'1 2.5
2018-Apr-08 18:00N 30°04' W 093°20'0 0.0
2018-Apr-08 17:30N 30°04' W 093°20'0 0.0
2018-Apr-08 17:00N 30°04' W 093°20'0 0.0
2018-Apr-08 16:30N 30°04' W 093°20'0 0.0
2018-Apr-08 16:00N 30°04' W 093°20'0 0.0
2018-Apr-08 15:30N 30°04' W 093°20'0 0.0
2018-Apr-08 15:00N 30°04' W 093°20'0 0.0
2018-Apr-08 14:30N 30°04' W 093°20'0 0.0
2018-Apr-08 14:00N 30°04' W 093°20'0 0.0
2018-Apr-08 13:30N 30°04' W 093°20'0 0.0
2018-Apr-08 13:00N 30°04' W 093°20'0 0.0
2018-Apr-08 12:30N 30°04' W 093°20'0 0.0
2018-Apr-08 12:00N 30°04' W 093°20'0 0.0
2018-Apr-08 11:30N 30°04' W 093°20'0 0.0
2018-Apr-08 11:00N 30°04' W 093°20'1 1.1
2018-Apr-08 10:30N 30°05' W 093°20'2 4.5
2018-Apr-08 10:00N 30°06' W 093°18'0 0.0
2018-Apr-08 09:30N 30°06' W 093°18'0 0.0
2018-Apr-08 09:00N 30°06' W 093°18'0 0.0
2018-Apr-08 08:30N 30°06' W 093°18'0 0.0
2018-Apr-08 08:00N 30°06' W 093°18'0 0.0
2018-Apr-08 07:30N 30°06' W 093°18'0 0.0
2018-Apr-08 07:00N 30°06' W 093°18'0 0.0
2018-Apr-08 06:30N 30°06' W 093°18'0 0.0
2018-Apr-08 06:00N 30°06' W 093°18'0 0.0
2018-Apr-08 05:30N 30°06' W 093°18'0 0.1
2018-Apr-08 05:01N 30°06' W 093°18'  

Dump ship's entire track history